Latest Weather Observations for Wangaratta

IDV60801

Issued at 7:02 pm EST Saturday 23 July 2016 (issued every 30 minutes, with the page automatically refreshed every 10 minutes)

About weather observations | Map of weather stations | Latest weather observations for VIC | Other Formats
Station Details ID: 082138 Name: WANGARATTA AERO Lat: -36.42 Lon: 146.31 Height: 152.6 m
Data from the previous 72 hours. | See also: Recent months at Wangaratta
Date/Time
EST
Temp
°C
App
Temp
°C
Dew
Point
°C
Rel
Hum
%
Delta-T
°C
Wind Press
QNH
hPa
Press
MSL
hPa
Rain since
9am
mm
Dir  Spd
km/h
Gust
km/h
Spd
kts
Gust
kts
23/07:00pm 8.5 3.3 2.3 65 2.6 WNW 19 26 10 14 1012.7 1013.0 0.8
23/06:30pm 8.7 2.5 2.1 63 2.8 WNW 24 37 13 20 1012.3 1012.6 0.8
23/06:00pm 8.9 2.9 1.1 58 3.2 WNW 22 32 12 17 1011.8 1012.1 0.8
23/05:30pm 8.9 3.8 0.9 57 3.3 WNW 17 28 9 15 1011.2 1011.6 0.8
23/05:00pm 9.2 3.7 0.6 55 3.5 W 19 28 10 15 1010.8 1011.2 0.8
23/04:30pm 9.6 4.0 1.0 55 3.6 W 20 30 11 16 1010.5 1010.9 0.8
23/04:00pm 9.6 3.3 1.3 56 3.5 W 24 33 13 18 1010.0 1010.3 0.8
23/03:30pm 10.6 5.2 1.4 53 3.9 WSW 19 30 10 16 1009.5 1009.8 0.8
23/03:00pm 10.0 4.2 2.4 59 3.3 W 22 32 12 17 1009.1 1009.4 0.8
23/02:30pm 10.0 4.3 3.1 62 3.0 WSW 22 35 12 19 1008.8 1009.1 0.8
23/02:00pm 9.2 3.9 3.0 65 2.7 W 20 28 11 15 1008.7 1009.0 0.8
23/01:37pm 7.3 -0.3 3.7 78 1.6 WSW 33 61 18 33 1008.8 1009.1 0.8
23/01:30pm 7.1 -1.4 3.2 76 1.7 WSW 37 61 20 33 1009.0 1009.3 0.8
23/01:25pm 9.1 1.6 1.0 57 3.3 W 30 50 16 27 1008.6 1008.9 0.8
23/01:00pm 10.0 3.0 2.1 58 3.4 W 28 41 15 22 1008.4 1008.7 0.8
23/12:55pm 9.7 2.3 1.6 57 3.4 W 30 41 16 22 1008.4 1008.7 0.8
23/12:36pm 9.6 3.5 2.7 62 3.0 W 24 33 13 18 1008.2 1008.5 0.8
23/12:30pm 9.3 2.4 2.6 63 2.9 W 28 39 15 21 1008.3 1008.6 0.8
23/12:10pm 9.6 1.9 2.2 60 3.1 W 32 50 17 27 1008.2 1008.5 0.8
23/12:00pm 9.5 2.2 2.6 62 3.0 W 30 48 16 26 1008.0 1008.3 0.8
23/11:30am 9.3 1.9 1.9 60 3.1 WSW 30 50 16 27 1007.8 1008.1 0.8
23/11:22am 9.1 1.2 1.3 58 3.2 WSW 32 50 17 27 1007.5 1007.8 0.8
23/11:00am 8.8 0.7 3.0 67 2.5 WSW 35 46 19 25 1007.4 1007.7 0.8
23/10:30am 7.3 1.2 3.0 74 1.8 WSW 24 37 13 20 1006.9 1007.2 0.8
23/10:10am 6.2 -0.2 5.3 94 0.4 SW 28 39 15 21 1006.8 1007.1 0.8
23/10:00am 5.9 -2.2 5.2 95 0.3 SW 37 57 20 31 1006.6 1006.9 0.8
23/09:56am 5.4 -3.2 4.4 93 0.4 SW 39 57 21 31 1006.6 1006.9 0.6
23/09:55am 5.3 -3.4 4.3 93 0.4 SW 39 57 21 31 1006.6 1006.9 0.6
23/09:48am 7.2 -0.5 3.4 77 1.6 WSW 33 48 18 26 1006.1 1006.4 0.0
23/09:43am 8.7 2.3 5.1 78 1.6 W 28 46 15 25 1005.5 1005.8 0.0
23/09:30am 8.6 2.6 5.4 80 1.5 W 26 39 14 21 1005.4 1005.7 0.0
23/09:00am 8.3 1.1 5.2 81 1.4 W 32 46 17 25 1004.3 1004.6 18.8
23/08:30am 8.2 1.8 5.0 80 1.4 W 28 46 15 25 1004.0 1004.3 18.8
23/08:00am 7.6 1.6 5.2 85 1.1 W 26 41 14 22 1003.4 1003.7 18.8
23/07:49am 7.5 1.5 5.5 87 0.9 W 26 39 14 21 1003.5 1003.8 18.8
23/07:46am 7.6 1.7 5.6 87 0.9 W 26 39 14 21 1003.5 1003.8 18.8
23/07:37am 7.5 2.0 6.1 91 0.6 W 24 35 13 19 1003.4 1003.7 18.8
23/07:31am 7.3 1.4 5.9 91 0.6 W 26 39 14 21 1003.4 1003.7 18.8
23/07:30am 7.3 1.0 5.9 91 0.6 W 28 39 15 21 1003.4 1003.7 18.8
23/07:00am 7.6 0.9 5.6 87 0.9 W 30 44 16 24 1002.5 1002.8 18.8
23/06:30am 7.5 0.2 5.6 88 0.9 W 33 46 18 25 1001.8 1002.1 18.8
23/06:14am 7.5 0.4 5.6 88 0.9 W 32 54 17 29 1001.5 1001.8 18.8
23/06:00am 7.6 1.0 5.9 89 0.8 W 30 41 16 22 1001.2 1001.5 18.6
23/05:49am 7.4 0.8 5.9 90 0.7 W 30 39 16 21 1001.1 1001.4 18.6
23/05:30am 7.2 0.9 5.8 91 0.6 W 28 37 15 20 1000.9 1001.2 18.6
23/05:26am 7.4 0.7 5.7 89 0.8 W 30 48 16 26 1000.8 1001.1 18.6
23/05:22am 7.5 -0.2 5.5 87 0.9 W 35 48 19 26 1000.8 1001.1 18.4
23/05:02am 8.0 0.2 5.1 82 1.3 W 35 57 19 31 1000.2 1000.5 18.4
23/05:00am 7.9 0.5 4.8 81 1.4 W 33 46 18 25 1000.2 1000.5 18.4
23/04:30am 8.6 -0.5 4.2 74 1.9 W 41 59 22 32 999.8 1000.1 18.4
23/04:23am 8.7 -0.3 4.3 74 1.9 WNW 41 59 22 32 999.4 999.6 18.4
23/04:00am 8.6 0.0 4.4 75 1.9 WNW 39 52 21 28 999.0 999.2 18.4
23/03:30am 8.7 0.2 5.1 78 1.6 WNW 39 57 21 31 999.0 999.2 18.4
23/03:06am 8.7 0.2 5.3 79 1.5 WNW 39 61 21 33 998.8 999.0 18.4
23/03:00am 8.7 0.6 5.3 79 1.6 WNW 37 52 20 28 998.9 999.1 18.4
23/02:30am 9.3 0.9 5.5 77 1.7 WNW 39 61 21 33 998.4 998.6 18.4
23/02:28am 9.3 1.3 5.9 79 1.6 WNW 37 61 20 33 998.4 998.6 18.4
23/02:06am 9.1 1.3 6.5 84 1.2 WNW 37 54 20 29 998.4 998.6 18.4
23/02:00am 9.0 0.8 6.6 85 1.1 WNW 39 57 21 31 998.2 998.4 18.4
23/01:46am 8.9 -0.3 6.5 85 1.1 WNW 44 63 24 34 998.5 998.7 17.8
23/01:39am 9.6 0.7 6.7 82 1.4 WNW 43 63 23 34 997.6 997.9 16.8
23/01:30am 9.9 2.6 7.0 82 1.4 NW 35 52 19 28 997.6 997.9 16.8
23/01:04am 10.3 3.1 7.7 84 1.3 WNW 35 54 19 29 997.7 998.0 16.4
23/01:00am 10.2 2.7 7.8 85 1.2 WNW 37 54 20 29 997.8 998.1 16.4
23/12:46am 10.4 4.3 8.2 86 1.1 WNW 30 50 16 27 998.0 998.2 16.4
23/12:30am 9.8 4.3 7.4 85 1.2 WNW 26 37 14 20 998.0 998.2 16.4
23/12:07am 9.8 2.9 7.1 83 1.3 W 33 59 18 32 997.8 998.1 16.4
23/12:00am 10.0 3.2 7.9 87 1.0 W 33 56 18 30 998.0 998.2 16.4
 
Date/Time
EST
Temp
°C
App
Temp
°C
Dew
Point
°C
Rel
Hum
%
Delta-T
°C
Wind Press
QNH
hPa
Press
MSL
hPa
Rain since
9am
mm
Dir  Spd
km/h
Gust
km/h
Spd
kts
Gust
kts
22/11:52pm 10.2 3.6 8.6 90 0.8 WNW 33 56 18 30 998.2 998.4 16.2
22/11:50pm 10.2 3.6 8.6 90 0.8 WNW 33 43 18 23 998.1 998.3 16.2
22/11:36pm 10.8 5.2 8.6 86 1.1 NW 28 48 15 26 997.4 997.7 15.6
22/11:30pm 10.7 5.0 8.5 86 1.1 NW 28 43 15 23 997.5 997.8 15.6
22/11:26pm 10.8 5.1 8.4 85 1.2 NW 28 43 15 23 997.5 997.8 15.6
22/11:00pm 10.1 7.4 9.0 93 0.6 NNW 13 17 7 9 998.2 998.4 15.6
22/10:30pm 10.0 6.1 8.6 91 0.7 WNW 19 28 10 15 998.2 998.4 15.6
22/10:12pm 9.9 5.8 8.5 91 0.7 W 20 28 11 15 998.4 998.6 15.6
22/10:00pm 9.9 5.8 8.7 92 0.6 W 20 32 11 17 998.4 998.6 15.4
22/09:57pm 9.8 4.9 8.6 92 0.6 W 24 41 13 22 998.6 998.8 15.2
22/09:30pm 10.8 5.1 8.2 84 1.3 W 28 37 15 20 998.6 998.8 14.2
22/09:00pm 11.3 4.8 8.2 81 1.5 W 32 46 17 25 998.5 998.7 14.2
22/08:51pm 11.9 8.1 9.1 83 1.4 NW 19 41 10 22 998.7 998.9 14.2
22/08:30pm 10.0 7.1 8.3 89 0.8 N 13 19 7 10 998.3 998.5 14.2
22/08:00pm 9.8 7.4 8.6 92 0.6 N 11 17 6 9 998.4 998.6 14.2
22/07:30pm 9.9 7.9 8.7 92 0.6 N 9 13 5 7 998.6 998.8 14.2
22/07:00pm 10.5 7.8 8.8 89 0.9 N 13 17 7 9 998.5 998.7 14.2
22/06:30pm 10.6 8.2 8.5 87 1.0 NNE 11 13 6 7 998.8 999.0 14.2
22/06:00pm 10.8 9.2 8.2 84 1.3 NNW 6 11 3 6 999.1 999.3 14.2
22/05:30pm 11.5 9.4 8.4 81 1.5 WNW 9 15 5 8 998.8 999.0 14.2
22/05:00pm 12.3 8.7 8.4 77 2.0 WNW 17 24 9 13 998.7 998.9 14.2
22/04:30pm 12.5 9.0 8.6 77 2.0 W 17 24 9 13 998.4 998.6 14.2
22/04:00pm 12.4 8.3 8.7 78 1.9 W 20 28 11 15 998.7 998.9 14.2
22/03:30pm 12.6 7.7 8.5 76 2.1 W 24 41 13 22 998.9 999.1 14.2
22/03:00pm 12.5 7.0 9.0 79 1.8 W 28 41 15 22 999.1 999.3 14.2
22/02:30pm 12.5 7.3 10.2 86 1.2 W 28 43 15 23 999.1 999.3 14.2
22/02:18pm 12.3 7.2 10.7 90 0.8 W 28 46 15 25 998.5 998.7 14.2
22/02:12pm 12.1 7.4 10.7 91 0.7 W 26 41 14 22 998.9 999.1 14.2
22/02:00pm 12.2 5.8 10.6 90 0.8 W 35 56 19 30 998.8 999.0 13.6
22/01:53pm 12.4 5.2 10.5 88 1.0 W 39 65 21 35 999.0 999.2 13.2
22/01:36pm 12.8 6.3 10.3 85 1.3 W 35 54 19 29 999.4 999.6 12.2
22/01:30pm 13.0 6.1 10.2 83 1.5 W 37 52 20 28 999.6 999.8 12.0
22/01:00pm 13.1 6.9 11.5 90 0.9 WSW 35 54 19 29 999.6 999.8 11.2
22/12:30pm 14.1 8.1 12.1 88 1.1 WSW 35 57 19 31 999.8 1000.1 10.4
22/12:13pm 14.3 9.4 12.7 90 0.9 W 30 52 16 28 1000.2 1000.5 10.0
22/12:01pm 14.0 8.9 13.1 94 0.5 W 32 43 17 23 1000.4 1000.7 10.0
22/12:00pm 13.9 8.8 13.0 94 0.5 W 32 43 17 23 1000.4 1000.7 10.0
22/11:45am 13.8 9.4 13.0 95 0.4 W 28 43 15 23 1000.5 1000.8 9.6
22/11:36am 13.4 6.8 12.6 95 0.4 W 39 59 21 32 1000.8 1001.1 8.8
22/11:30am 13.4 6.5 11.6 89 1.0 W 39 69 21 37 1001.0 1001.3 6.4
22/11:26am 14.8 9.0 12.7 87 1.2 WNW 35 69 19 37 1001.0 1001.3 4.4
22/11:25am 15.6 10.7 13.8 89 1.0 NW 32 69 17 37 1001.1 1001.4 4.2
22/11:13am 17.0 13.5 16.4 96 0.4 NW 30 48 16 26 1000.1 1000.4 3.4
22/11:00am 17.1 12.5 16.1 94 0.6 NW 35 52 19 28 1000.6 1000.9 2.4
22/10:30am 17.2 13.5 15.9 92 0.8 NNW 30 48 16 26 1000.5 1000.8 1.8
22/10:12am 17.2 13.9 16.1 93 0.7 NNW 28 46 15 25 1000.8 1001.1 1.8
22/10:00am 16.7 13.4 16.1 96 0.4 NNW 28 44 15 24 1001.1 1001.4 1.8
22/09:57am 16.5 12.8 15.9 96 0.4 NNW 30 48 16 26 1001.3 1001.6 1.8
22/09:33am 16.3 12.6 16.1 99 0.1 NNW 30 39 16 21 1001.4 1001.7 1.8
22/09:30am 16.3 12.6 16.1 99 0.1 NNW 30 39 16 21 1001.4 1001.7 1.6
22/09:19am 16.2 12.5 16.0 99 0.1 NNW 30 43 16 23 1001.7 1002.0 1.6
22/09:00am 16.1 12.4 15.9 99 0.1 NNW 30 43 16 23 1002.2 1002.5 2.0
22/08:30am 15.7 12.3 15.7 100 0.0 NNW 28 41 15 22 1001.8 1002.1 1.6
22/08:00am 15.2 11.6 15.2 100 0.0 NNW 28 39 15 21 1001.9 1002.2 1.6
22/07:42am 15.3 11.3 15.3 100 0.0 NNW 30 50 16 27 1002.6 1002.9 1.6
22/07:30am 15.3 11.7 15.3 100 0.0 N 28 44 15 24 1002.7 1003.0 1.6
22/07:00am 14.7 11.3 14.7 100 0.0 N 26 37 14 20 1003.1 1003.4 1.6
22/06:30am 14.2 9.8 14.2 100 0.0 N 30 39 16 21 1003.3 1003.6 1.6
22/06:00am 14.2 9.4 14.0 99 0.1 N 32 39 17 21 1003.8 1004.1 1.4
22/05:30am 14.4 10.7 13.8 96 0.3 N 26 35 14 19 1004.8 1005.0 1.4
22/05:00am 14.3 11.4 14.0 98 0.2 N 22 32 12 17 1005.8 1006.1 1.4
22/04:30am 14.4 11.6 14.2 99 0.1 N 22 35 12 19 1006.9 1007.2 1.4
22/04:00am 14.0 12.8 14.0 100 0.0 N 13 19 7 10 1007.4 1007.7 1.4
22/03:30am 13.2 12.1 13.2 100 0.0 N 11 17 6 9 1008.0 1008.3 1.4
22/03:00am 12.6 11.7 12.6 100 0.0 NW 9 11 5 6 1008.9 1009.2 1.4
22/02:30am 12.3 12.6 12.3 100 0.0 W 2 11 1 6 1009.7 1010.0 1.4
22/02:00am 12.1 12.4 12.1 100 0.0 S 2 6 1 3 1010.4 1010.7 1.4
22/01:30am 12.1 11.6 12.1 100 0.0 ESE 6 9 3 5 1010.6 1011.0 1.4
22/01:19am 12.1 12.0 12.1 100 0.0 SSE 4 9 2 5 1010.6 1011.0 1.4
22/01:00am 12.1 12.4 12.1 100 0.0 ESE 2 7 1 4 1011.1 1011.5 1.4
22/12:42am 12.0 12.6 12.0 100 0.0 CALM 0 0 0 0 1011.4 1011.8 1.4
22/12:30am 12.0 12.6 12.0 100 0.0 CALM 0 0 0 0 1011.8 1012.1 1.4
22/12:00am 11.9 12.5 11.9 100 0.0 CALM 0 0 0 0 1012.5 1012.8 1.4
 
Date/Time
EST
Temp
°C
App
Temp
°C
Dew
Point
°C
Rel
Hum
%
Delta-T
°C
Wind Press
QNH
hPa
Press
MSL
hPa
Rain since
9am
mm
Dir  Spd
km/h
Gust
km/h
Spd
kts
Gust
kts
21/11:30pm 11.8 12.4 11.8 100 0.0 CALM 0 0 0 0 1013.0 1013.3 1.4
21/11:00pm 11.9 12.5 11.9 100 0.0 CALM 0 0 0 0 1013.0 1013.3 1.4
21/10:30pm 12.1 12.8 12.1 100 0.0 CALM 0 0 0 0 1013.2 1013.5 1.4
21/10:25pm 12.1 12.8 12.1 100 0.0 CALM 0 0 0 0 1013.2 1013.5 1.4
21/10:08pm 12.4 11.4 12.4 100 0.0 NNE 9 9 5 5 1013.5 1013.8 1.4
21/10:00pm 12.3 11.7 12.3 100 0.0 N 7 9 4 5 1013.7 1014.0 1.4
21/09:51pm 12.2 12.9 12.2 100 0.0 CALM 0 7 0 4 1014.0 1014.3 1.4
21/09:30pm 12.0 12.6 12.0 100 0.0 CALM 0 0 0 0 1014.1 1014.4 1.4
21/09:12pm 12.2 12.9 12.2 100 0.0 CALM 0 0 0 0 1014.1 1014.4 1.4
21/09:00pm 12.3 13.0 12.3 100 0.0 CALM 0 0 0 0 1014.0 1014.3 1.4
21/08:30pm 12.6 13.4 12.6 100 0.0 CALM 0 0 0 0 1013.5 1013.8 1.4
21/08:00pm 12.7 12.2 12.7 100 0.0 E 7 11 4 6 1013.7 1014.0 1.4
21/07:55pm 12.7 11.8 12.7 100 0.0 E 9 13 5 7 1013.7 1014.0 1.4
21/07:30pm 12.9 12.1 12.9 100 0.0 NE 9 13 5 7 1014.1 1014.4 1.2
21/07:14pm 12.9 12.7 12.9 100 0.0 E 6 9 3 5 1014.4 1014.7 1.0
21/07:13pm 12.9 12.7 12.9 100 0.0 E 6 9 3 5 1014.4 1014.7 1.0
21/07:00pm 12.8 12.5 12.8 100 0.0 E 6 9 3 5 1014.4 1014.7 1.0
21/06:30pm 12.9 13.8 12.9 100 0.0 CALM 0 0 0 0 1014.8 1015.1 0.8
21/06:00pm 13.0 13.9 13.0 100 0.0 CALM 0 0 0 0 1014.9 1015.2 0.4
21/05:52pm 13.0 13.6 13.0 100 0.0 NNE 2 6 1 3 1014.8 1015.1 0.4
21/05:51pm 13.0 13.2 13.0 100 0.0 NNE 4 6 2 3 1014.8 1015.1 0.4
21/05:30pm 13.1 12.7 12.9 99 0.1 NNE 7 9 4 5 1014.7 1015.0 0.4
21/05:00pm 13.3 12.5 13.0 98 0.2 NE 9 13 5 7 1014.5 1014.8 0.4
21/04:56pm 13.3 12.5 13.0 98 0.2 NNE 9 13 5 7 1014.5 1014.8 0.4
21/04:30pm 13.4 12.2 12.9 97 0.3 NNE 11 13 6 7 1014.7 1015.0 0.4
21/04:00pm 13.6 13.1 12.7 94 0.5 NNE 7 9 4 5 1014.9 1015.2 0.4
21/03:30pm 13.4 12.6 12.8 96 0.3 N 9 11 5 6 1015.0 1015.3 0.4
21/03:00pm 13.2 12.3 12.6 96 0.3 N 9 13 5 7 1015.2 1015.5 0.4
21/02:30pm 12.9 11.2 12.4 97 0.3 N 13 19 7 10 1015.1 1015.4 0.4
21/02:00pm 13.0 11.8 12.7 98 0.2 N 11 15 6 8 1015.4 1015.7 0.4
21/01:30pm 12.6 10.9 12.3 98 0.2 NNW 13 20 7 11 1015.7 1016.0 0.4
21/01:00pm 12.6 10.8 12.1 97 0.3 N 13 19 7 10 1016.0 1016.4 0.4
21/12:30pm 12.7 10.2 12.2 97 0.3 N 17 22 9 12 1016.3 1016.7 0.4
21/12:04pm 12.4 10.3 12.4 100 0.0 N 15 19 8 10 1017.1 1017.5 0.4
21/12:00pm 12.5 10.4 12.5 100 0.0 N 15 19 8 10 1017.2 1017.6 0.4
21/11:30am 12.2 10.4 12.0 99 0.1 N 13 19 7 10 1017.7 1018.1 0.4
21/11:26am 12.1 10.2 11.8 98 0.2 NNW 13 19 7 10 1017.8 1018.2 0.4
21/11:00am 12.2 12.8 12.0 99 0.1 CALM 0 0 0 0 1018.0 1018.4 0.4
21/10:36am 11.9 12.4 11.7 99 0.1 CALM 0 0 0 0 1018.2 1018.6 0.4
21/10:30am 11.9 12.4 11.7 99 0.1 CALM 0 0 0 0 1018.2 1018.6 0.4
21/10:00am 11.6 12.1 11.6 100 0.0 CALM 0 0 0 0 1018.2 1018.6 0.2
21/09:30am 11.0 11.3 11.0 100 0.0 CALM 0 4 0 2 1018.2 1018.6 0.2
21/09:00am 10.3 8.3 10.3 100 0.0 NE 11 20 6 11 1017.7 1018.1 1.6
21/08:30am 10.0 9.7 10.0 100 0.0 ESE 2 9 1 5 1018.8 1019.1 0.8
21/08:00am 9.7 7.6 9.7 100 0.0 WSW 11 17 6 9 1018.9 1019.2 0.2
21/07:58am 9.7 8.0 9.7 100 0.0 WSW 9 15 5 8 1018.7 1019.0 0.2
21/07:30am 9.5 9.4 9.5 100 0.0 CALM 0 0 0 0 1018.1 1018.5 0.0
21/07:05am 9.2 9.0 9.2 100 0.0 CALM 0 6 0 3 1018.1 1018.5 0.0
21/07:00am 9.2 8.7 9.2 100 0.0 SSW 2 7 1 4 1018.1 1018.5 0.0
21/06:30am 9.0 8.8 9.0 100 0.0 CALM 0 0 0 0 1018.3 1018.7 0.0
21/06:21am 9.0 8.8 9.0 100 0.0 CALM 0 0 0 0 1018.5 1018.8 0.0
21/06:00am 8.8 8.5 8.8 100 0.0 CALM 0 0 0 0 1018.6 1018.9 0.0
21/05:48am 8.7 8.4 8.7 100 0.0 CALM 0 0 0 0 1018.5 1018.8 0.0
21/05:30am 8.4 8.0 8.4 100 0.0 CALM 0 0 0 0 1018.5 1018.8 0.0
21/05:00am 7.9 7.4 7.9 100 0.0 CALM 0 6 0 3 1018.5 1018.8 0.0
21/04:56am 7.9 7.4 7.9 100 0.0 CALM 0 0 0 0 1018.5 1018.8 0.0
21/04:53am 7.7 7.2 7.7 100 0.0 CALM 0 0 0 0 1018.6 1018.9 0.0
21/04:30am 7.1 6.4 7.1 100 0.0 CALM 0 0 0 0 1018.7 1019.0 0.0
21/04:00am 6.6 5.8 6.6 100 0.0 CALM 0 0 0 0 1019.0 1019.3 0.0
21/03:30am 6.7 5.9 6.7 100 0.0 CALM 0 0 0 0 1019.2 1019.5 0.0
21/03:00am 6.5 5.7 6.5 100 0.0 CALM 0 0 0 0 1019.3 1019.6 0.0
21/02:30am 6.3 5.5 6.3 100 0.0 CALM 0 0 0 0 1019.6 1019.9 0.0
21/02:00am 7.0 6.3 7.0 100 0.0 CALM 0 0 0 0 1019.6 1019.9 0.0
21/01:51am 7.5 6.9 7.5 100 0.0 CALM 0 0 0 0 1019.7 1020.0 0.0
21/01:47am 7.6 7.0 7.6 100 0.0 CALM 0 0 0 0 1019.7 1020.0 0.0
21/01:34am 7.8 7.3 7.8 100 0.0 CALM 0 0 0 0 1019.8 1020.1 0.0
21/01:30am 7.4 6.8 7.3 99 0.0 CALM 0 0 0 0 1019.9 1020.2 0.0
21/01:21am 7.5 6.9 7.4 99 0.0 CALM 0 0 0 0 1019.8 1020.1 0.0
21/01:09am 7.7 6.8 7.7 100 0.0 NNW 2 6 1 3 1019.7 1020.0 0.0
21/01:00am 8.5 7.4 8.5 100 0.0 NW 4 7 2 4 1019.8 1020.1 0.0
21/12:30am 9.4 9.3 9.4 100 0.0 CALM 0 0 0 0 1019.7 1020.0 0.0
21/12:14am 9.3 9.1 9.2 99 0.0 CALM 0 0 0 0 1019.9 1020.2 0.0
21/12:00am 9.5 9.4 9.4 99 0.0 CALM 0 4 0 2 1019.9 1020.2 0.0
 
Date/Time
EST
Temp
°C
App
Temp
°C
Dew
Point
°C
Rel
Hum
%
Delta-T
°C
Wind Press
QNH
hPa
Press
MSL
hPa
Rain since
9am
mm
Dir  Spd
km/h
Gust
km/h
Spd
kts
Gust
kts
20/11:30pm 10.8 10.3 10.8 100 0.0 SSW 4 6 2 3 1019.9 1020.2 0.0
20/11:00pm 10.7 9.6 10.5 99 0.1 SW 7 7 4 4 1020.0 1020.3 0.0
20/10:30pm 10.9 10.4 10.7 99 0.1 S 4 7 2 4 1020.2 1020.5 0.0
20/10:00pm 10.9 10.0 10.7 99 0.1 S 6 7 3 4 1020.3 1020.6 0.0
20/09:30pm 11.0 11.3 10.8 99 0.1 CALM 0 0 0 0 1020.3 1020.6 0.0
20/09:00pm 10.9 9.8 10.7 99 0.1 ESE 7 9 4 5 1020.3 1020.6 0.0
20/08:30pm 10.8 9.9 10.5 98 0.2 E 6 7 3 4 1020.3 1020.6 0.0
20/08:00pm 10.8 11.0 10.5 98 0.2 CALM 0 0 0 0 1020.2 1020.5 0.0
20/07:30pm 10.3 10.1 9.2 93 0.6 CALM 0 0 0 0 1019.9 1020.2 0.0
20/07:18pm 10.7 10.6 9.5 92 0.6 CALM 0 0 0 0 1019.9 1020.2 0.0

Other Formats:

Comma delimited format used in spreadsheet applications
http://www.bom.gov.au/fwo/IDV60801/IDV60801.94889.axf

JavaScript Object Notation format (JSON) in row-major order
http://www.bom.gov.au/fwo/IDV60801/IDV60801.94889.json